createdAt,value
2023-02-24T00:00:32.771Z,55.48
2023-02-24T00:15:22.762Z,56.30
2023-02-24T00:17:51.926Z,56.26
2023-02-24T00:20:20.300Z,56.09
2023-02-24T00:22:50.515Z,56.03
2023-02-24T00:25:19.670Z,55.82
2023-02-24T00:27:51.187Z,55.93
2023-02-24T00:30:21.688Z,55.96
2023-02-24T00:32:54.490Z,55.87
2023-02-24T00:35:22.933Z,56.05
2023-02-24T00:37:51.617Z,56.08
2023-02-24T00:40:23.923Z,56.07
2023-02-24T00:42:54.936Z,56.36
2023-02-24T00:45:23.530Z,56.21
2023-02-24T00:47:57.782Z,56.31
2023-02-24T00:50:26.178Z,56.33
2023-02-24T00:52:54.308Z,56.45
2023-02-24T00:55:23.579Z,56.39
2023-02-24T00:57:51.892Z,56.46
2023-02-24T01:00:20.398Z,56.59
2023-02-24T01:02:49.804Z,56.41
2023-02-24T01:05:20.309Z,56.61
2023-02-24T01:07:48.886Z,56.70
2023-02-24T01:10:18.610Z,56.88
2023-02-24T01:12:51.283Z,56.74
2023-02-24T01:15:20.966Z,56.71
2023-02-24T01:17:50.035Z,56.71
2023-02-24T01:20:19.280Z,56.77
2023-02-24T01:22:53.248Z,56.78
2023-02-24T01:25:22.737Z,56.86
2023-02-24T01:27:50.964Z,56.96
2023-02-24T01:30:20.909Z,56.81
2023-02-24T01:32:51.373Z,56.75
2023-02-24T01:35:23.589Z,56.79
2023-02-24T01:37:53.547Z,56.75
2023-02-24T01:40:22.053Z,56.76
2023-02-24T01:42:52.356Z,56.79
2023-02-24T01:45:23.148Z,56.88
2023-02-24T01:47:52.724Z,56.77
2023-02-24T01:50:21.944Z,56.90
2023-02-24T01:52:52.196Z,56.88
2023-02-24T01:55:29.364Z,57.01
2023-02-24T01:57:59.158Z,56.70
2023-02-24T02:00:47.936Z,56.89
2023-02-24T02:03:33.993Z,56.70
2023-02-24T02:06:08.025Z,56.80
2023-02-24T02:08:37.578Z,56.76
2023-02-24T02:11:08.949Z,57.06
2023-02-24T02:13:43.456Z,57.01
2023-02-24T02:16:18.159Z,57.05
2023-02-24T02:18:56.475Z,57.07
2023-02-24T02:22:02.622Z,56.91
2023-02-24T02:24:58.929Z,56.91
2023-02-24T02:28:07.139Z,57.03
2023-02-24T02:30:51.169Z,57.11
2023-02-24T02:33:39.750Z,57.11
2023-02-24T02:36:22.691Z,57.31
2023-02-24T02:39:03.418Z,57.32
2023-02-24T02:41:36.689Z,57.30
2023-02-24T02:44:34.682Z,57.23
2023-02-24T02:47:30.489Z,57.44
2023-02-24T02:50:21.614Z,57.34
2023-02-24T02:53:04.187Z,57.36
2023-02-24T02:55:36.398Z,57.19
2023-02-24T02:58:09.450Z,57.33
2023-02-24T03:00:50.308Z,56.91
2023-02-24T03:03:20.317Z,56.98
2023-02-24T03:05:57.645Z,56.79
2023-02-24T03:08:29.765Z,56.83
2023-02-24T03:11:00.630Z,56.68
2023-02-24T03:13:32.216Z,56.49
2023-02-24T03:16:00.925Z,56.34
2023-02-24T03:18:32.529Z,56.48
2023-02-24T03:21:13.156Z,56.34
2023-02-24T03:23:49.885Z,56.10
2023-02-24T03:26:50.252Z,56.14
2023-02-24T03:29:30.765Z,56.05
2023-02-24T03:32:18.698Z,56.04
2023-02-24T03:34:50.686Z,56.02
2023-02-24T03:37:26.039Z,55.67
2023-02-24T03:39:55.204Z,55.81
2023-02-24T03:42:23.959Z,55.77
2023-02-24T03:44:52.725Z,55.65
2023-02-24T03:47:21.365Z,55.65
2023-02-24T03:49:50.519Z,55.55
2023-02-24T03:52:47.525Z,55.17
2023-02-24T03:55:22.416Z,54.97
2023-02-24T03:58:10.504Z,54.87
2023-02-24T04:01:05.923Z,54.76
2023-02-24T04:04:13.093Z,54.60
2023-02-24T04:07:06.476Z,54.48
2023-02-24T04:10:12.992Z,54.52
2023-02-24T04:13:07.187Z,54.44
2023-02-24T04:15:40.005Z,54.36
2023-02-24T04:18:21.762Z,54.28
2023-02-24T04:20:53.587Z,54.21
2023-02-24T04:23:27.855Z,54.16
2023-02-24T04:26:00.894Z,54.19
2023-02-24T04:28:30.135Z,54.21
2023-02-24T04:31:06.117Z,54.12
2023-02-24T04:33:35.863Z,54.09
2023-02-24T04:36:05.294Z,54.12
2023-02-24T04:38:36.762Z,54.21
2023-02-24T04:41:07.192Z,54.31
2023-02-24T04:43:36.349Z,54.44
2023-02-24T04:46:08.251Z,54.32
2023-02-24T04:48:36.633Z,54.32
2023-02-24T04:51:07.279Z,54.55
2023-02-24T04:53:36.834Z,54.37
2023-02-24T04:56:12.399Z,54.63
2023-02-24T04:58:42.947Z,54.51
2023-02-24T05:01:11.461Z,54.59
2023-02-24T05:03:44.554Z,54.55
2023-02-24T05:06:16.861Z,54.63
2023-02-24T05:08:45.185Z,54.57
2023-02-24T05:11:17.044Z,54.70
2023-02-24T05:13:47.299Z,54.75
2023-02-24T05:16:18.137Z,54.84
2023-02-24T05:18:49.783Z,54.61
2023-02-24T05:21:36.621Z,54.63
2023-02-24T05:24:08.247Z,54.65
2023-02-24T05:26:43.933Z,54.84
2023-02-24T05:29:15.249Z,54.73
2023-02-24T05:31:44.635Z,54.78
2023-02-24T05:34:17.704Z,54.72
2023-02-24T05:36:46.669Z,54.79
2023-02-24T05:39:19.513Z,54.83
2023-02-24T05:41:49.260Z,54.75
2023-02-24T05:44:23.106Z,54.68
2023-02-24T05:46:56.969Z,54.82
2023-02-24T05:49:29.516Z,54.82
2023-02-24T05:52:01.036Z,54.86
2023-02-24T05:54:34.255Z,54.61
2023-02-24T05:57:05.308Z,54.69
2023-02-24T05:59:33.713Z,54.86
2023-02-24T06:02:07.855Z,54.85
2023-02-24T06:04:40.942Z,54.72
2023-02-24T06:07:14.731Z,54.82
2023-02-24T06:09:45.359Z,54.70
2023-02-24T06:12:16.679Z,54.80
2023-02-24T06:14:47.654Z,54.69
2023-02-24T06:17:19.265Z,54.68
2023-02-24T06:19:50.252Z,54.61
2023-02-24T06:22:23.540Z,54.61
2023-02-24T06:24:54.360Z,54.70
2023-02-24T06:27:25.478Z,54.66
2023-02-24T06:29:59.014Z,54.44
2023-02-24T06:32:31.540Z,54.53
2023-02-24T06:35:00.744Z,54.66
2023-02-24T06:37:30.284Z,54.63
2023-02-24T06:39:58.957Z,54.74
2023-02-24T06:42:28.064Z,54.69
2023-02-24T06:44:56.633Z,54.61
2023-02-24T06:47:24.955Z,54.56
2023-02-24T06:49:53.782Z,54.62
2023-02-24T06:52:22.047Z,54.56
2023-02-24T06:54:52.589Z,54.59
2023-02-24T06:57:21.090Z,54.76
2023-02-24T06:59:49.577Z,54.68
2023-02-24T07:02:18.062Z,54.61
2023-02-24T07:04:47.849Z,54.52
2023-02-24T07:07:17.769Z,54.60
2023-02-24T07:09:49.321Z,54.43
2023-02-24T07:12:21.233Z,54.49
2023-02-24T07:14:50.680Z,54.39
2023-02-24T07:17:24.017Z,54.34
2023-02-24T07:19:54.778Z,54.24
2023-02-24T07:22:25.513Z,54.26
2023-02-24T07:25:00.826Z,54.18
2023-02-24T07:27:30.796Z,54.10
2023-02-24T07:29:59.480Z,54.06
2023-02-24T07:32:28.549Z,54.18
2023-02-24T07:34:56.852Z,54.15
2023-02-24T07:37:25.112Z,53.99
2023-02-24T07:39:53.468Z,53.83
2023-02-24T07:42:22.732Z,53.52
2023-02-24T07:44:57.655Z,53.63
2023-02-24T07:47:26.748Z,53.49
2023-02-24T07:49:55.620Z,53.38
2023-02-24T07:52:23.838Z,53.47
2023-02-24T07:54:52.080Z,53.51
2023-02-24T08:10:37.061Z,53.55
2023-02-24T08:13:12.254Z,53.04
2023-02-24T08:15:40.785Z,52.98
2023-02-24T08:35:36.085Z,53.16
2023-02-24T08:38:07.850Z,52.75
2023-02-24T08:40:40.071Z,52.84
2023-02-24T08:56:09.893Z,53.19
2023-02-24T08:58:47.739Z,52.63
2023-02-24T09:01:24.811Z,52.78
2023-02-24T09:03:58.822Z,52.83
2023-02-24T09:06:38.042Z,52.98
2023-02-24T09:09:17.872Z,53.10
2023-02-24T09:11:59.053Z,53.24
2023-02-24T09:14:29.577Z,53.50
2023-02-24T09:17:11.823Z,53.60
2023-02-24T09:32:19.162Z,53.69
2023-02-24T09:34:47.894Z,53.13
2023-02-24T09:37:25.236Z,53.35
2023-02-24T09:39:57.262Z,53.38
2023-02-24T09:42:29.656Z,53.36
2023-02-24T09:45:11.635Z,53.44
2023-02-24T10:01:48.057Z,53.67
2023-02-24T10:04:23.234Z,53.28
2023-02-24T10:06:58.602Z,53.47
2023-02-24T10:09:34.731Z,53.36
2023-02-24T10:12:17.612Z,53.54
2023-02-24T10:15:32.486Z,53.57
2023-02-24T10:30:20.162Z,53.12
2023-02-24T10:33:00.753Z,52.77
2023-02-24T10:35:34.167Z,52.87
2023-02-24T10:38:06.343Z,53.15
2023-02-24T10:40:56.998Z,53.30
2023-02-24T10:43:33.961Z,53.63
2023-02-24T10:46:17.666Z,53.65
2023-02-24T10:49:05.110Z,53.64
2023-02-24T10:51:42.071Z,53.62
2023-02-24T10:54:45.274Z,53.63
2023-02-24T10:57:58.146Z,53.76
2023-02-24T11:00:57.593Z,53.93
2023-02-24T11:03:36.432Z,53.91
2023-02-24T11:06:06.143Z,53.97
2023-02-24T11:08:48.859Z,53.92
2023-02-24T11:11:29.992Z,53.93
2023-02-24T11:14:18.753Z,54.24
2023-02-24T11:17:14.517Z,54.32
2023-02-24T11:19:55.191Z,54.24
2023-02-24T11:22:32.300Z,54.28
2023-02-24T11:25:07.106Z,54.47
2023-02-24T11:27:35.487Z,54.46
2023-02-24T11:30:26.588Z,54.53
2023-02-24T11:33:09.446Z,54.53
2023-02-24T11:36:03.203Z,54.57
2023-02-24T11:38:45.914Z,54.30
2023-02-24T11:41:20.785Z,54.20
2023-02-24T11:44:02.960Z,54.14
2023-02-24T11:46:52.972Z,54.27
2023-02-24T11:50:04.833Z,54.19
2023-02-24T11:52:54.551Z,54.19
2023-02-24T11:56:32.538Z,54.28
2023-02-24T11:59:16.695Z,54.31
2023-02-24T12:01:56.032Z,54.43
2023-02-24T12:04:43.560Z,54.56
2023-02-24T12:07:21.163Z,54.70
2023-02-24T12:10:15.642Z,54.73
2023-02-24T12:13:14.762Z,54.78
2023-02-24T12:15:47.146Z,55.03
2023-02-24T12:18:30.766Z,55.14
2023-02-24T12:21:05.917Z,55.19
2023-02-24T12:23:35.006Z,55.26
2023-02-24T12:26:16.083Z,55.23
2023-02-24T12:29:10.984Z,55.18
2023-02-24T12:31:43.880Z,55.24
2023-02-24T12:34:24.128Z,55.34
2023-02-24T12:36:59.887Z,55.35
2023-02-24T12:39:54.781Z,55.47
2023-02-24T12:42:36.171Z,55.54
2023-02-24T12:45:38.473Z,55.61
2023-02-24T12:48:29.067Z,55.50
2023-02-24T12:51:00.401Z,55.58
2023-02-24T12:54:05.645Z,55.50
2023-02-24T12:57:11.121Z,55.49
2023-02-24T12:59:44.267Z,55.45
2023-02-24T13:02:13.548Z,55.39
2023-02-24T13:05:03.932Z,55.50
2023-02-24T13:07:53.700Z,55.53
2023-02-24T13:10:28.576Z,55.39
2023-02-24T13:13:15.930Z,55.39
2023-02-24T13:15:58.376Z,55.20
2023-02-24T13:18:32.164Z,54.93
2023-02-24T13:21:20.575Z,54.95
2023-02-24T13:24:20.571Z,54.90
2023-02-24T13:26:49.116Z,54.76
2023-02-24T13:29:17.804Z,54.80
2023-02-24T13:31:51.443Z,54.86
2023-02-24T13:34:43.310Z,54.88
2023-02-24T13:37:12.331Z,54.92
2023-02-24T13:39:47.412Z,55.00
2023-02-24T13:42:24.866Z,55.04
2023-02-24T13:45:10.155Z,55.22
2023-02-24T13:47:50.001Z,55.34
2023-02-24T13:50:38.348Z,55.36
2023-02-24T13:53:29.977Z,55.41
2023-02-24T13:56:30.813Z,55.48
2023-02-24T13:59:05.859Z,55.47
2023-02-24T14:02:08.255Z,55.47
2023-02-24T14:04:37.221Z,55.51
2023-02-24T14:07:10.056Z,55.55
2023-02-24T14:09:51.399Z,55.56
2023-02-24T14:12:22.035Z,55.60
2023-02-24T14:14:50.921Z,55.64
2023-02-24T14:17:32.204Z,55.66
2023-02-24T14:20:17.284Z,55.74
2023-02-24T14:22:53.487Z,55.70
2023-02-24T14:25:23.019Z,55.80
2023-02-24T14:28:01.879Z,55.83
2023-02-24T14:30:36.154Z,55.87
2023-02-24T14:33:07.493Z,55.96
2023-02-24T14:35:43.183Z,56.20
2023-02-24T14:38:39.677Z,56.21
2023-02-24T14:41:27.453Z,56.42
2023-02-24T14:44:30.142Z,56.59
2023-02-24T14:47:15.786Z,56.81
2023-02-24T14:50:07.495Z,56.87
2023-02-24T14:52:45.815Z,57.18
2023-02-24T14:55:28.260Z,57.22
2023-02-24T14:58:34.682Z,57.33
2023-02-24T15:01:28.902Z,57.46
2023-02-24T15:04:45.421Z,57.50
2023-02-24T15:07:22.230Z,57.58
2023-02-24T15:09:50.937Z,57.61
2023-02-24T15:12:19.420Z,57.70
2023-02-24T15:14:57.750Z,57.65
2023-02-24T15:17:26.427Z,57.68
2023-02-24T15:19:55.314Z,57.68
2023-02-24T15:22:33.322Z,57.74
2023-02-24T15:25:22.361Z,57.80
2023-02-24T15:27:55.479Z,57.88
2023-02-24T15:30:24.982Z,57.88
2023-02-24T15:33:05.144Z,58.05
2023-02-24T15:35:35.012Z,58.20
2023-02-24T15:38:19.519Z,58.27
2023-02-24T15:40:58.559Z,58.41
2023-02-24T15:43:37.305Z,58.52
2023-02-24T15:46:27.227Z,58.64
2023-02-24T15:49:02.022Z,58.81
2023-02-24T15:51:47.469Z,58.83
2023-02-24T15:54:21.175Z,58.84
2023-02-24T15:56:49.558Z,58.94
2023-02-24T15:59:18.524Z,59.00
2023-02-24T16:01:46.840Z,59.02
2023-02-24T16:04:15.081Z,59.01
2023-02-24T16:06:54.749Z,59.13
2023-02-24T16:09:38.908Z,59.13
2023-02-24T16:12:15.647Z,59.31
2023-02-24T16:14:44.377Z,59.40
2023-02-24T16:17:41.533Z,59.46
2023-02-24T16:20:18.413Z,59.52
2023-02-24T16:22:47.099Z,59.50
2023-02-24T16:25:17.508Z,59.57
2023-02-24T16:27:58.374Z,59.58
2023-02-24T16:30:44.140Z,59.57
2023-02-24T16:33:29.422Z,59.68
2023-02-24T16:36:15.320Z,59.58
2023-02-24T16:39:08.012Z,59.55
2023-02-24T16:41:59.562Z,59.55
2023-02-24T16:44:48.619Z,59.58
2023-02-24T16:48:12.481Z,59.58
2023-02-24T16:50:42.623Z,59.68
2023-02-24T16:53:16.861Z,59.79
2023-02-24T16:55:45.542Z,59.81
2023-02-24T16:58:14.301Z,59.89
2023-02-24T17:00:44.629Z,59.97
2023-02-24T17:03:19.664Z,60.01
2023-02-24T17:05:49.895Z,60.06
2023-02-24T17:08:18.990Z,60.14
2023-02-24T17:10:47.783Z,60.24
2023-02-24T17:13:19.856Z,60.41
2023-02-24T17:15:55.511Z,60.48
2023-02-24T17:18:24.820Z,60.59
2023-02-24T17:20:53.520Z,60.64
2023-02-24T17:23:22.792Z,60.79
2023-02-24T17:25:53.588Z,60.87
2023-02-24T17:28:22.116Z,60.83
2023-02-24T17:30:51.116Z,60.97
2023-02-24T17:33:21.032Z,60.99
2023-02-24T17:35:49.307Z,61.09
2023-02-24T17:38:21.713Z,61.27
2023-02-24T17:40:50.070Z,61.39
2023-02-24T17:43:19.397Z,61.36
2023-02-24T17:45:47.797Z,61.37
2023-02-24T17:48:18.270Z,61.43
2023-02-24T17:50:47.681Z,61.41
2023-02-24T17:53:16.164Z,61.48
2023-02-24T17:56:01.960Z,61.50
2023-02-24T17:58:31.780Z,61.56
2023-02-24T18:01:02.473Z,61.66
2023-02-24T18:03:32.226Z,61.72
2023-02-24T18:06:02.338Z,61.82
2023-02-24T18:08:33.794Z,61.93
2023-02-24T18:11:02.789Z,61.93
2023-02-24T18:13:32.663Z,62.12
2023-02-24T18:16:01.241Z,62.12
2023-02-24T18:18:30.698Z,62.12
2023-02-24T18:21:02.867Z,62.24
2023-02-24T18:23:32.903Z,62.33
2023-02-24T18:26:04.615Z,62.48
2023-02-24T18:28:35.582Z,62.49
2023-02-24T18:31:19.174Z,62.51
2023-02-24T18:33:48.514Z,62.57
2023-02-24T18:36:16.989Z,62.58
2023-02-24T18:38:46.420Z,62.67
2023-02-24T18:41:18.631Z,62.78
2023-02-24T18:43:51.237Z,62.75
2023-02-24T18:46:20.183Z,62.78
2023-02-24T18:48:50.543Z,62.89
2023-02-24T18:51:21.030Z,62.77
2023-02-24T18:53:52.154Z,62.81
2023-02-24T18:56:23.925Z,62.85
2023-02-24T18:58:58.386Z,63.01
2023-02-24T19:01:29.229Z,63.09
2023-02-24T19:03:57.721Z,63.19
2023-02-24T19:06:27.202Z,63.23
2023-02-24T19:09:12.579Z,63.29
2023-02-24T19:11:41.048Z,63.44
2023-02-24T19:14:11.996Z,63.51
2023-02-24T19:16:40.530Z,63.60
2023-02-24T19:19:13.936Z,63.71
2023-02-24T19:21:45.841Z,63.74
2023-02-24T19:24:17.346Z,63.90
2023-02-24T19:26:48.857Z,63.94
2023-02-24T19:29:22.850Z,63.97
2023-02-24T19:31:54.664Z,64.01
2023-02-24T19:34:24.324Z,64.01
2023-02-24T19:36:53.626Z,64.09
2023-02-24T19:39:22.885Z,64.10
2023-02-24T19:41:53.576Z,64.09
2023-02-24T19:44:25.631Z,64.10
2023-02-24T19:46:54.321Z,64.04
2023-02-24T19:49:22.915Z,64.03
2023-02-24T19:51:57.798Z,64.00
2023-02-24T19:54:26.938Z,63.97
2023-02-24T19:56:57.569Z,64.08
2023-02-24T19:59:26.470Z,64.01
2023-02-24T20:01:56.999Z,64.02
2023-02-24T20:04:25.656Z,63.73
2023-02-24T20:06:57.752Z,63.83
2023-02-24T20:09:27.214Z,63.95
2023-02-24T20:11:59.444Z,63.98
2023-02-24T20:14:28.677Z,64.03
2023-02-24T20:16:57.042Z,64.09
2023-02-24T20:19:27.342Z,64.22
2023-02-24T20:21:55.715Z,64.27
2023-02-24T20:24:24.403Z,64.32
2023-02-24T20:26:53.155Z,64.36
2023-02-24T20:29:22.206Z,64.49
2023-02-24T20:31:51.508Z,64.60
2023-02-24T20:34:20.880Z,64.55
2023-02-24T20:36:56.640Z,64.50
2023-02-24T20:39:25.340Z,64.54
2023-02-24T20:41:54.963Z,64.49
2023-02-24T20:44:24.969Z,64.47
2023-02-24T20:46:53.349Z,64.56
2023-02-24T20:49:21.979Z,64.58
2023-02-24T20:51:50.425Z,64.56
2023-02-24T20:54:18.903Z,64.59
2023-02-24T20:56:53.615Z,64.84
2023-02-24T20:59:23.032Z,64.90
2023-02-24T21:01:52.161Z,65.02
2023-02-24T21:04:27.022Z,65.06
2023-02-24T21:07:16.550Z,65.23
2023-02-24T21:10:21.620Z,65.19
2023-02-24T21:13:22.608Z,65.29
2023-02-24T21:16:06.432Z,65.29
2023-02-24T21:18:36.345Z,65.21
2023-02-24T21:21:08.126Z,65.32
2023-02-24T21:23:46.985Z,65.32
2023-02-24T21:26:36.323Z,65.40
2023-02-24T21:29:19.381Z,65.43
2023-02-24T21:31:56.882Z,65.43
2023-02-24T21:34:30.267Z,65.54
2023-02-24T21:37:06.225Z,65.64
2023-02-24T21:39:39.663Z,65.66
2023-02-24T21:42:13.281Z,65.72
2023-02-24T21:44:44.723Z,65.73
2023-02-24T21:47:15.987Z,65.75
2023-02-24T21:49:50.414Z,65.80
2023-02-24T21:52:31.119Z,65.76
2023-02-24T21:55:01.760Z,65.74
2023-02-24T21:57:42.325Z,65.79
2023-02-24T22:00:30.583Z,65.86
2023-02-24T22:03:15.309Z,65.87
2023-02-24T22:06:02.669Z,65.90
2023-02-24T22:08:43.844Z,65.98
2023-02-24T22:11:16.810Z,66.06
2023-02-24T22:13:50.312Z,66.13
2023-02-24T22:16:26.190Z,66.24
2023-02-24T22:18:57.617Z,66.18
2023-02-24T22:21:33.697Z,66.26
2023-02-24T22:24:18.776Z,66.29
2023-02-24T22:26:55.758Z,66.19
2023-02-24T22:29:44.728Z,66.28
2023-02-24T22:32:47.384Z,66.25
2023-02-24T22:35:15.803Z,66.31
2023-02-24T22:37:46.636Z,66.33
2023-02-24T22:40:15.020Z,66.36
2023-02-24T22:42:49.237Z,66.43
2023-02-24T22:45:17.611Z,66.36
2023-02-24T22:47:46.346Z,66.50
2023-02-24T22:50:16.029Z,66.56
2023-02-24T22:52:44.193Z,66.67
2023-02-24T22:55:13.868Z,66.67
2023-02-24T22:57:42.179Z,66.73
2023-02-24T23:00:11.710Z,66.87
2023-02-24T23:02:41.913Z,67.00
2023-02-24T23:05:13.876Z,67.22
2023-02-24T23:07:45.636Z,67.30
2023-02-24T23:10:14.015Z,67.34
2023-02-24T23:12:42.499Z,67.45
2023-02-24T23:15:11.393Z,67.63
2023-02-24T23:17:41.625Z,67.66
2023-02-24T23:20:13.895Z,67.63
2023-02-24T23:22:43.295Z,67.53
2023-02-24T23:25:12.326Z,67.51
2023-02-24T23:27:41.031Z,67.52
2023-02-24T23:30:11.968Z,67.49
2023-02-24T23:32:41.462Z,67.72
2023-02-24T23:35:12.993Z,67.52
2023-02-24T23:37:41.562Z,67.44
2023-02-24T23:40:11.509Z,67.32
2023-02-24T23:42:40.180Z,67.42
2023-02-24T23:45:09.888Z,67.35
2023-02-24T23:47:41.850Z,67.34
2023-02-24T23:50:11.261Z,67.41
2023-02-24T23:52:40.051Z,67.46
2023-02-24T23:55:14.373Z,67.63
2023-02-24T23:57:43.552Z,67.69
